Aéroport int. de Vancouver, Colombie-Britannique

Conditions des dernières 24 heures

Date / Heure
(HAP)
Conditions Temp
(°F)
Humidité
(%)
Point de rosée
(°F)
Vent
(mph)
Pression (pouces) Visibilité
(miles)
28 mars 2015
22:00 Pluie faible 50 92 48 ENE 9 30.3 12
21:00 Pluie faible 50 88 47 ENE 9 30.3 12
20:00 Pluie faible 51 85 47 ENE 10 30.3 12
19:00 Nuageux 53 76 45 SE 6 30.3 15
18:00 Pluie faible 53 76 46 ESE 7 30.3 15
17:00 Pluie faible 54 70 44 S 4 30.3 20
16:00 Pluie faible 53 74 45 SSO 4 30.3 20
15:00 Généralement nuageux 55 64 43 S 11 30.3 20
14:00 Généralement nuageux 56 61 43 SSO 10 30.3 20
13:00 Généralement nuageux 57   58 42 S 6 30.3 20
12:00 Généralement nuageux 54 73 46 OSO 4 30.3 20
11:00 Généralement nuageux 53 71 44 OSO 8 30.2 20
10:00 Partiellement nuageux 54 75 46 O 12 30.2 20
9:00 Généralement nuageux 51 83 46 O 11 30.2 20
8:00 Généralement nuageux 49   90 46 ONO 9 30.1 15
7:00 Faible averse de pluie 49   88 45 ONO 20 30.1 10
6:00 Généralement nuageux 49   91 46 O 16 30.0 15
5:00 Nuageux 50 80 44 SO 14 30.0 20
4:00 Généralement nuageux 50 78 43 S 16 29.9 20
3:00 Généralement nuageux 50 77 44 S 12 29.9 20
2:00 Partiellement nuageux 51 74 43 SSE 12 29.9 20
1:00 Partiellement nuageux 51 74 43 S 18 29.9 20
0:00 Généralement nuageux 51 79 45 SSO 16 29.9 15
27 mars 2015
23:00 Généralement nuageux 53 81 47 SE 6 29.9 15
22:00 Pluie faible 54 78 47 SSE 14 29.9 15
N.D. non disponible
↑ température la plus haute
↓ température la plus basse

Si vous désirez plus de données historiques sur les conditions météo, s.v.p. visitez Données climatologiques en ligne.

Ce que nous faisons

Date de modification :